| time (UTC) | temp C | wind direction | speed KPH | gust KPH | rain 1hr cm | rain 24hr cm | rain mn cm | humidity % | barometer mb |
| 20260505153058 | 17 | 96 | 1.6 | 11.3 | 0.00 | 0.76 | 0.76 | 87 | 1012.7 |
| 20260505151551 | 17 | 101 | 0.0 | 6.4 | 0.00 | 0.76 | 0.76 | 90 | 1012.9 |
| 20260505140106 | 16 | 59 | 0.0 | 3.2 | 0.03 | 0.76 | 0.76 | 93 | 1013.3 |
| 20260505124540 | 15 | 46 | 0.0 | 3.2 | 0.08 | 0.71 | 0.71 | 93 | 1013.0 |
| 20260505123042 | 15 | 14 | 0.0 | 3.2 | 0.05 | 0.71 | 0.71 | 93 | 1012.9 |
| 20260505121540 | 15 | 14 | 0.0 | 0.0 | 0.08 | 0.71 | 0.71 | 93 | 1012.8 |
| 20260505120045 | 15 | 15 | 0.0 | 3.2 | 0.08 | 0.69 | 0.69 | 93 | 1012.9 |
| 20260505114544 | 15 | 5 | 0.0 | 6.4 | 0.08 | 0.66 | 0.66 | 93 | 1012.5 |
| 20260505113033 | 15 | 342 | 4.8 | 8.0 | 0.10 | 0.66 | 0.66 | 93 | 1012.4 |
| 20260505111532 | 15 | 24 | 3.2 | 6.4 | 0.10 | 0.64 | 0.64 | 93 | 1012.0 |
| 20260505101540 | 15 | 241 | 0.0 | 4.8 | 0.15 | 0.53 | 0.53 | 92 | 1011.9 |
| 20260505100025 | 15 | 274 | 0.0 | 3.2 | 0.15 | 0.48 | 0.48 | 92 | 1012.0 |
| 20260505094533 | 15 | 217 | 0.0 | 3.2 | 0.20 | 0.46 | 0.46 | 92 | 1012.0 |
| 20260505093021 | 15 | 315 | 0.0 | 4.8 | 0.20 | 0.41 | 0.41 | 92 | 1012.3 |
| 20260505091519 | 15 | 242 | 1.6 | 3.2 | 0.23 | 0.38 | 0.38 | 91 | 1013.1 |
| 20260505090021 | 15 | 241 | 0.0 | 3.2 | 0.18 | 0.30 | 0.30 | 91 | 1012.8 |
| 20260505084518 | 15 | 331 | 3.2 | 11.3 | 0.18 | 0.25 | 0.25 | 90 | 1013.1 |
| 20260505083021 | 15 | 217 | 0.0 | 11.3 | 0.18 | 0.20 | 0.20 | 90 | 1012.8 |
| 20260505081515 | 15 | 157 | 0.0 | 9.7 | 0.15 | 0.15 | 0.15 | 89 | 1012.7 |
| 20260505080014 | 15 | 249 | 1.6 | 9.7 | 0.10 | 0.10 | 0.10 | 88 | 1012.9 |
| 20260505074512 | 16 | 244 | 0.0 | 4.8 | 0.08 | 0.08 | 0.08 | 85 | 1012.7 |
| 20260505073008 | 16 | 237 | 3.2 | 9.7 | 0.03 | 0.03 | 0.03 | 82 | 1012.6 |
| 20260505071518 | 17 | 201 | 3.2 | 6.4 | 0.00 | 0.00 | 0.00 | 76 | 1012.2 |
| 20260505070003 | 17 | 179 | 0.0 | 3.2 | 0.00 | 0.00 | 0.00 | 75 | 1012.2 |
| 20260505064504 | 17 | 146 | 0.0 | 3.2 | 0.00 | 0.00 | 0.00 | 74 | 1012.5 |
| 20260505063059 | 17 | 175 | 0.0 | 9.7 | 0.00 | 0.00 | 0.00 | 74 | 1012.7 |
| 20260505061558 | 17 | 180 | 1.6 | 4.8 | 0.00 | 0.00 | 0.00 | 74 | 1013.0 |
| 20260505060057 | 17 | 202 | 1.6 | 6.4 | 0.00 | 0.00 | 0.00 | 74 | 1013.2 |
| 20260505054557 | 17 | 180 | 0.0 | 0.0 | 0.00 | 0.00 | 0.00 | 75 | 1013.1 |
| 20260505053055 | 17 | 180 | 0.0 | 3.2 | 0.00 | 0.00 | 0.00 | 74 | 1012.9 |
| 20260505051604 | 17 | 180 | 0.0 | 3.2 | 0.00 | 0.00 | 0.00 | 74 | 1013.1 |
| 20260505041549 | 18 | 180 | 0.0 | 3.2 | 0.00 | 0.00 | 0.00 | 71 | 1013.7 |
| 20260505040048 | 18 | 118 | 0.0 | 4.8 | 0.00 | 0.00 | 0.00 | 70 | 1013.7 |
| 20260505034649 | 18 | 157 | 0.0 | 4.8 | 0.00 | 0.00 | 0.00 | 70 | 1013.9 |
| 20260505033047 | 18 | 157 | 0.0 | 3.2 | 0.00 | 0.00 | 0.00 | 69 | 1014.0 |
| 20260505031552 | 19 | 197 | 0.0 | 3.2 | 0.00 | 0.00 | 0.00 | 67 | 1014.0 |
| 20260505030045 | 19 | 138 | 0.0 | 4.8 | 0.00 | 0.00 | 0.00 | 66 | 1014.0 |
| 20260505024544 | 20 | 199 | 0.0 | 3.2 | 0.00 | 0.00 | 0.00 | 64 | 1014.0 |
| 20260505023046 | 20 | 205 | 1.6 | 6.4 | 0.00 | 0.00 | 0.00 | 63 | 1013.6 |
| 20260505021543 | 20 | 220 | 3.2 | 6.4 | 0.00 | 0.00 | 0.00 | 62 | 1013.3 |
| 20260505020043 | 21 | 221 | 1.6 | 9.7 | 0.00 | 0.00 | 0.00 | 61 | 1013.1 |
| 20260505014542 | 21 | 218 | 4.8 | 12.9 | 0.00 | 0.00 | 0.00 | 60 | 1012.9 |
| 20260505013058 | 21 | 215 | 1.6 | 8.0 | 0.00 | 0.00 | 0.00 | 60 | 1012.6 |
| 20260505011540 | 22 | 225 | 1.6 | 6.4 | 0.00 | 0.00 | 0.00 | 59 | 1012.5 |
| 20260505010040 | 22 | 207 | 1.6 | 6.4 | 0.00 | 0.00 | 0.00 | 58 | 1012.2 |
| 20260505004540 | 22 | 202 | 1.6 | 8.0 | 0.00 | 0.00 | 0.00 | 56 | 1012.0 |
| 20260505003038 | 23 | 225 | 4.8 | 11.3 | 0.00 | 0.00 | 0.00 | 55 | 1011.8 |
| 20260505001538 | 23 | 223 | 6.4 | 14.5 | 0.00 | 0.00 | 0.00 | 53 | 1011.8 |
| 20260505000050 | 23 | 217 | 3.2 | 11.3 | 0.00 | 0.00 | 0.00 | 53 | 1011.7 |
| 20260504234536 | 24 | 209 | 6.4 | 16.1 | 0.00 | 0.00 | 0.00 | 52 | 1011.7 |
| 20260504233036 | 24 | 206 | 6.4 | 20.9 | 0.00 | 0.00 | 0.00 | 50 | 1011.9 |
| 20260504231533 | 25 | 213 | 6.4 | 17.7 | 0.00 | 0.00 | 0.00 | 49 | 1012.0 |
| 20260504230032 | 25 | 247 | 8.0 | 22.5 | 0.00 | 0.00 | 0.00 | 48 | 1012.1 |
| 20260504224532 | 25 | 230 | 9.7 | 20.9 | 0.00 | 0.00 | 0.00 | 47 | 1012.1 |
| 20260504223033 | 26 | 217 | 9.7 | 20.9 | 0.00 | 0.00 | 0.00 | 46 | 1012.2 |
| 20260504221529 | 26 | 190 | 11.3 | 19.3 | 0.00 | 0.00 | 0.00 | 45 | 1012.2 |
| 20260504220039 | 26 | 215 | 9.7 | 24.1 | 0.00 | 0.00 | 0.00 | 44 | 1012.2 |
| 20260504214528 | 27 | 207 | 8.0 | 17.7 | 0.00 | 0.00 | 0.00 | 43 | 1012.2 |
| 20260504213027 | 26 | 236 | 9.7 | 27.4 | 0.00 | 0.00 | 0.00 | 43 | 1012.3 |
| 20260504211534 | 26 | 228 | 12.9 | 25.7 | 0.00 | 0.00 | 0.00 | 42 | 1012.5 |
| 20260504210022 | 26 | 219 | 9.7 | 25.7 | 0.00 | 0.00 | 0.00 | 45 | 1012.7 |
| 20260504204523 | 26 | 215 | 9.7 | 29.0 | 0.00 | 0.00 | 0.00 | 45 | 1012.8 |
| 20260504203019 | 26 | 234 | 16.1 | 30.6 | 0.00 | 0.00 | 0.00 | 44 | 1013.0 |
| 20260504201516 | 26 | 211 | 14.5 | 30.6 | 0.00 | 0.00 | 0.00 | 44 | 1013.2 |
| 20260504200014 | 26 | 187 | 8.0 | 25.7 | 0.00 | 0.00 | 0.00 | 45 | 1013.2 |
| 20260504194512 | 26 | 213 | 9.7 | 25.7 | 0.00 | 0.00 | 0.00 | 48 | 1013.4 |
| 20260504193018 | 26 | 216 | 12.9 | 33.8 | 0.00 | 0.00 | 0.00 | 47 | 1013.5 |
| 20260504191512 | 26 | 275 | 12.9 | 22.5 | 0.00 | 0.00 | 0.00 | 46 | 1013.7 |
| 20260504190009 | 26 | 236 | 8.0 | 27.4 | 0.00 | 0.00 | 0.00 | 48 | 1013.7 |
| 20260504184504 | 25 | 110 | 11.3 | 27.4 | 0.00 | 0.00 | 0.00 | 51 | 1013.9 |
| 20260504183002 | 25 | 225 | 14.5 | 35.4 | 0.00 | 0.00 | 0.00 | 47 | 1014.0 |
| 20260504181600 | 25 | 205 | 12.9 | 25.7 | 0.00 | 0.00 | 0.00 | 49 | 1014.2 |
| 20260504180058 | 25 | 221 | 14.5 | 37.0 | 0.00 | 0.00 | 0.00 | 47 | 1014.3 |
| 20260504174556 | 25 | 251 | 14.5 | 32.2 | 0.00 | 0.00 | 0.00 | 49 | 1014.5 |
| 20260504173056 | 25 | 215 | 14.5 | 30.6 | 0.00 | 0.00 | 0.00 | 48 | 1014.4 |
| 20260504171557 | 24 | 167 | 12.9 | 37.0 | 0.00 | 0.00 | 0.00 | 48 | 1014.5 |